sensor_id;sensor_type;location;lat;lon;timestamp;P1;durP1;ratioP1;P2;durP2;ratioP2
39612;SDS011;25303;48.896;13.342;2023-03-01T13:45:50;19.00;;;8.32;;
39612;SDS011;25303;48.896;13.342;2023-03-01T13:48:34;18.92;;;7.40;;
39612;SDS011;25303;48.896;13.342;2023-03-01T13:51:20;16.15;;;8.48;;
39612;SDS011;25303;48.896;13.342;2023-03-01T13:54:09;15.40;;;7.72;;
39612;SDS011;25303;48.896;13.342;2023-03-01T13:56:54;17.55;;;8.02;;
39612;SDS011;25303;48.896;13.342;2023-03-01T13:59:46;15.88;;;7.32;;
39612;SDS011;25303;48.896;13.342;2023-03-01T14:02:30;13.15;;;6.70;;
39612;SDS011;25303;48.896;13.342;2023-03-01T14:05:15;12.02;;;6.53;;
39612;SDS011;25303;48.896;13.342;2023-03-01T14:07:58;13.75;;;6.72;;
39612;SDS011;25303;48.896;13.342;2023-03-01T14:10:42;14.15;;;7.40;;
39612;SDS011;25303;48.896;13.342;2023-03-01T14:13:38;13.10;;;6.55;;
39612;SDS011;25303;48.896;13.342;2023-03-01T14:16:35;17.17;;;7.55;;
39612;SDS011;25303;48.896;13.342;2023-03-01T14:19:33;15.48;;;7.72;;
39612;SDS011;25303;48.896;13.342;2023-03-01T14:22:18;15.32;;;8.02;;
39612;SDS011;25303;48.896;13.342;2023-03-01T14:25:05;16.42;;;7.82;;
39612;SDS011;25303;48.896;13.342;2023-03-01T14:28:03;13.90;;;6.95;;
39612;SDS011;25303;48.896;13.342;2023-03-01T14:30:55;17.27;;;8.15;;
39612;SDS011;25303;48.896;13.342;2023-03-01T14:33:39;17.13;;;8.15;;
39612;SDS011;25303;48.896;13.342;2023-03-01T14:36:27;18.20;;;8.50;;
39612;SDS011;25303;48.896;13.342;2023-03-01T14:39:16;19.92;;;8.82;;
39612;SDS011;25303;48.896;13.342;2023-03-01T14:41:59;15.45;;;8.18;;
39612;SDS011;25303;48.896;13.342;2023-03-01T14:44:56;15.18;;;7.70;;
39612;SDS011;25303;48.896;13.342;2023-03-01T14:47:40;15.32;;;7.68;;
39612;SDS011;25303;48.896;13.342;2023-03-01T14:50:25;16.08;;;7.53;;
39612;SDS011;25303;48.896;13.342;2023-03-01T14:53:16;14.60;;;7.35;;
39612;SDS011;25303;48.896;13.342;2023-03-01T14:56:01;14.07;;;7.47;;
39612;SDS011;25303;48.896;13.342;2023-03-01T14:58:44;15.15;;;7.85;;
39612;SDS011;25303;48.896;13.342;2023-03-01T15:01:29;19.73;;;8.48;;
39612;SDS011;25303;48.896;13.342;2023-03-01T15:04:12;14.47;;;7.53;;
39612;SDS011;25303;48.896;13.342;2023-03-01T15:06:58;16.98;;;7.70;;
39612;SDS011;25303;48.896;13.342;2023-03-01T15:09:47;19.23;;;8.27;;
39612;SDS011;25303;48.896;13.342;2023-03-01T15:12:38;19.08;;;9.02;;
39612;SDS011;25303;48.896;13.342;2023-03-01T15:18:22;18.45;;;8.38;;
39612;SDS011;25303;48.896;13.342;2023-03-01T15:21:09;18.40;;;7.97;;
39612;SDS011;25303;48.896;13.342;2023-03-01T15:24:00;13.38;;;6.75;;
39612;SDS011;25303;48.896;13.342;2023-03-01T15:26:51;16.35;;;8.68;;
39612;SDS011;25303;48.896;13.342;2023-03-01T15:29:38;14.90;;;7.50;;
39612;SDS011;25303;48.896;13.342;2023-03-01T15:32:26;18.27;;;8.10;;
39612;SDS011;25303;48.896;13.342;2023-03-01T15:38:33;22.77;;;8.45;;
39612;SDS011;25303;48.896;13.342;2023-03-01T15:41:24;18.35;;;8.63;;
39612;SDS011;25303;48.896;13.342;2023-03-01T15:44:16;17.75;;;8.00;;
39612;SDS011;25303;48.896;13.342;2023-03-01T15:47:00;18.77;;;7.82;;
39612;SDS011;25303;48.896;13.342;2023-03-01T15:49:44;14.23;;;6.80;;
39612;SDS011;25303;48.896;13.342;2023-03-01T15:52:35;14.52;;;6.15;;
39612;SDS011;25303;48.896;13.342;2023-03-01T15:55:23;11.63;;;5.45;;
39612;SDS011;25303;48.896;13.342;2023-03-01T15:58:10;13.38;;;6.03;;
39612;SDS011;25303;48.896;13.342;2023-03-01T16:00:58;14.52;;;6.68;;
39612;SDS011;25303;48.896;13.342;2023-03-01T16:03:43;10.02;;;5.55;;
39612;SDS011;25303;48.896;13.342;2023-03-01T16:06:26;16.00;;;5.97;;
39612;SDS011;25303;48.896;13.342;2023-03-01T16:09:09;14.00;;;5.75;;
39612;SDS011;25303;48.896;13.342;2023-03-01T16:11:53;16.48;;;4.80;;
39612;SDS011;25303;48.896;13.342;2023-03-01T16:14:36;10.18;;;4.70;;
39612;SDS011;25303;48.896;13.342;2023-03-01T16:17:20;15.27;;;5.93;;
39612;SDS011;25303;48.896;13.342;2023-03-01T16:20:03;11.63;;;4.88;;
39612;SDS011;25303;48.896;13.342;2023-03-01T16:22:47;14.02;;;5.57;;
39612;SDS011;25303;48.896;13.342;2023-03-01T16:25:31;16.27;;;5.95;;
39612;SDS011;25303;48.896;13.342;2023-03-01T16:28:15;10.98;;;4.55;;
39612;SDS011;25303;48.896;13.342;2023-03-01T16:30:57;11.23;;;4.88;;
39612;SDS011;25303;48.896;13.342;2023-03-01T16:33:44;11.35;;;4.40;;
39612;SDS011;25303;48.896;13.342;2023-03-01T16:36:30;16.60;;;5.25;;
39612;SDS011;25303;48.896;13.342;2023-03-01T16:39:13;10.50;;;4.22;;
39612;SDS011;25303;48.896;13.342;2023-03-01T16:41:59;9.10;;;3.72;;
39612;SDS011;25303;48.896;13.342;2023-03-01T16:44:42;13.52;;;6.10;;
39612;SDS011;25303;48.896;13.342;2023-03-01T16:47:25;11.13;;;4.72;;
39612;SDS011;25303;48.896;13.342;2023-03-01T16:50:10;12.93;;;5.72;;
39612;SDS011;25303;48.896;13.342;2023-03-01T16:52:53;13.15;;;5.72;;
39612;SDS011;25303;48.896;13.342;2023-03-01T16:55:35;17.88;;;6.63;;
39612;SDS011;25303;48.896;13.342;2023-03-01T16:58:19;17.00;;;7.22;;
39612;SDS011;25303;48.896;13.342;2023-03-01T17:01:05;17.08;;;6.38;;
39612;SDS011;25303;48.896;13.342;2023-03-01T17:03:49;15.85;;;6.47;;
39612;SDS011;25303;48.896;13.342;2023-03-01T17:06:34;15.15;;;6.00;;
39612;SDS011;25303;48.896;13.342;2023-03-01T17:09:16;16.05;;;6.28;;
39612;SDS011;25303;48.896;13.342;2023-03-01T17:12:03;16.67;;;6.25;;
39612;SDS011;25303;48.896;13.342;2023-03-01T17:14:46;17.73;;;6.18;;
39612;SDS011;25303;48.896;13.342;2023-03-01T17:17:31;14.60;;;6.03;;
39612;SDS011;25303;48.896;13.342;2023-03-01T17:20:16;16.05;;;6.05;;
39612;SDS011;25303;48.896;13.342;2023-03-01T17:23:00;18.40;;;7.25;;
39612;SDS011;25303;48.896;13.342;2023-03-01T17:25:43;17.35;;;6.47;;
39612;SDS011;25303;48.896;13.342;2023-03-01T17:28:28;16.85;;;6.57;;
39612;SDS011;25303;48.896;13.342;2023-03-01T17:31:12;16.65;;;6.53;;
39612;SDS011;25303;48.896;13.342;2023-03-01T17:33:55;20.20;;;6.32;;
39612;SDS011;25303;48.896;13.342;2023-03-01T17:36:41;16.15;;;6.65;;
39612;SDS011;25303;48.896;13.342;2023-03-01T17:39:28;12.90;;;5.38;;
39612;SDS011;25303;48.896;13.342;2023-03-01T17:42:16;14.48;;;5.32;;
39612;SDS011;25303;48.896;13.342;2023-03-01T17:44:59;13.05;;;5.35;;
39612;SDS011;25303;48.896;13.342;2023-03-01T17:47:42;16.85;;;6.25;;
39612;SDS011;25303;48.896;13.342;2023-03-01T17:50:25;14.05;;;5.85;;
39612;SDS011;25303;48.896;13.342;2023-03-01T17:53:09;10.53;;;4.53;;
39612;SDS011;25303;48.896;13.342;2023-03-01T17:55:59;9.50;;;4.25;;
39612;SDS011;25303;48.896;13.342;2023-03-01T17:58:43;6.68;;;3.60;;
39612;SDS011;25303;48.896;13.342;2023-03-01T18:01:27;10.15;;;3.70;;
39612;SDS011;25303;48.896;13.342;2023-03-01T18:04:10;11.38;;;5.22;;
39612;SDS011;25303;48.896;13.342;2023-03-01T18:06:53;8.40;;;4.13;;
39612;SDS011;25303;48.896;13.342;2023-03-01T18:09:36;10.20;;;4.00;;
39612;SDS011;25303;48.896;13.342;2023-03-01T18:12:20;13.38;;;4.15;;
39612;SDS011;25303;48.896;13.342;2023-03-01T18:17:47;10.63;;;4.50;;
39612;SDS011;25303;48.896;13.342;2023-03-01T18:20:30;11.52;;;4.68;;
39612;SDS011;25303;48.896;13.342;2023-03-01T18:25:57;12.32;;;5.05;;
39612;SDS011;25303;48.896;13.342;2023-03-01T18:28:42;12.57;;;4.50;;
39612;SDS011;25303;48.896;13.342;2023-03-01T18:31:27;10.93;;;4.30;;
39612;SDS011;25303;48.896;13.342;2023-03-01T18:34:13;10.50;;;3.75;;
39612;SDS011;25303;48.896;13.342;2023-03-01T18:36:56;9.18;;;4.68;;
39612;SDS011;25303;48.896;13.342;2023-03-01T18:39:50;11.73;;;5.30;;
39612;SDS011;25303;48.896;13.342;2023-03-01T18:42:33;7.47;;;3.70;;
39612;SDS011;25303;48.896;13.342;2023-03-01T18:45:17;11.30;;;4.45;;
39612;SDS011;25303;48.896;13.342;2023-03-01T18:48:00;11.18;;;4.82;;
39612;SDS011;25303;48.896;13.342;2023-03-01T18:50:44;15.25;;;6.47;;
39612;SDS011;25303;48.896;13.342;2023-03-01T18:53:27;14.63;;;6.07;;
39612;SDS011;25303;48.896;13.342;2023-03-01T18:56:09;15.13;;;6.10;;
39612;SDS011;25303;48.896;13.342;2023-03-01T18:58:53;15.80;;;7.15;;
39612;SDS011;25303;48.896;13.342;2023-03-01T19:01:38;17.13;;;6.80;;
39612;SDS011;25303;48.896;13.342;2023-03-01T19:04:21;13.57;;;5.75;;
39612;SDS011;25303;48.896;13.342;2023-03-01T19:07:04;11.82;;;4.93;;
39612;SDS011;25303;48.896;13.342;2023-03-01T19:09:48;14.05;;;7.22;;
39612;SDS011;25303;48.896;13.342;2023-03-01T19:12:31;13.27;;;5.75;;
39612;SDS011;25303;48.896;13.342;2023-03-01T19:15:16;13.07;;;6.20;;
39612;SDS011;25303;48.896;13.342;2023-03-01T19:18:01;14.32;;;6.50;;
39612;SDS011;25303;48.896;13.342;2023-03-01T19:20:46;17.20;;;7.55;;
39612;SDS011;25303;48.896;13.342;2023-03-01T19:23:31;18.65;;;8.10;;
39612;SDS011;25303;48.896;13.342;2023-03-01T19:26:16;22.30;;;8.18;;
39612;SDS011;25303;48.896;13.342;2023-03-01T19:29:00;16.80;;;7.43;;
39612;SDS011;25303;48.896;13.342;2023-03-01T19:31:45;18.50;;;8.43;;
39612;SDS011;25303;48.896;13.342;2023-03-01T19:34:29;17.48;;;8.18;;
39612;SDS011;25303;48.896;13.342;2023-03-01T19:37:12;16.75;;;8.20;;
39612;SDS011;25303;48.896;13.342;2023-03-01T19:39:55;20.73;;;8.27;;
39612;SDS011;25303;48.896;13.342;2023-03-01T19:42:38;16.77;;;8.18;;
39612;SDS011;25303;48.896;13.342;2023-03-01T19:45:21;18.25;;;8.55;;
39612;SDS011;25303;48.896;13.342;2023-03-01T19:48:13;17.75;;;8.60;;
39612;SDS011;25303;48.896;13.342;2023-03-01T19:50:57;25.15;;;10.15;;
39612;SDS011;25303;48.896;13.342;2023-03-01T19:53:40;21.58;;;9.73;;
39612;SDS011;25303;48.896;13.342;2023-03-01T19:56:23;19.02;;;8.40;;
39612;SDS011;25303;48.896;13.342;2023-03-01T19:59:06;23.52;;;10.63;;
39612;SDS011;25303;48.896;13.342;2023-03-01T20:01:49;22.38;;;10.05;;
39612;SDS011;25303;48.896;13.342;2023-03-01T20:04:32;24.25;;;10.68;;
39612;SDS011;25303;48.896;13.342;2023-03-01T20:07:16;29.67;;;11.23;;
39612;SDS011;25303;48.896;13.342;2023-03-01T20:12:42;25.95;;;10.57;;
39612;SDS011;25303;48.896;13.342;2023-03-01T20:15:25;23.63;;;10.40;;
39612;SDS011;25303;48.896;13.342;2023-03-01T20:18:08;22.13;;;9.88;;
39612;SDS011;25303;48.896;13.342;2023-03-01T20:20:52;21.98;;;10.18;;
39612;SDS011;25303;48.896;13.342;2023-03-01T20:23:36;26.15;;;9.95;;
39612;SDS011;25303;48.896;13.342;2023-03-01T20:26:19;24.25;;;11.30;;
39612;SDS011;25303;48.896;13.342;2023-03-01T20:29:03;21.67;;;10.20;;
39612;SDS011;25303;48.896;13.342;2023-03-01T20:31:48;26.02;;;11.60;;
39612;SDS011;25303;48.896;13.342;2023-03-01T20:34:31;26.50;;;11.73;;
39612;SDS011;25303;48.896;13.342;2023-03-01T20:37:14;22.77;;;9.82;;
39612;SDS011;25303;48.896;13.342;2023-03-01T20:39:58;25.10;;;9.50;;
39612;SDS011;25303;48.896;13.342;2023-03-01T20:42:41;21.52;;;9.88;;
39612;SDS011;25303;48.896;13.342;2023-03-01T20:45:24;20.38;;;8.73;;
39612;SDS011;25303;48.896;13.342;2023-03-01T20:48:08;20.58;;;9.07;;
39612;SDS011;25303;48.896;13.342;2023-03-01T20:50:51;20.48;;;9.00;;
39612;SDS011;25303;48.896;13.342;2023-03-01T20:53:34;24.55;;;10.48;;
39612;SDS011;25303;48.896;13.342;2023-03-01T20:56:19;24.50;;;10.35;;
39612;SDS011;25303;48.896;13.342;2023-03-01T20:59:17;22.23;;;9.18;;
39612;SDS011;25303;48.896;13.342;2023-03-01T21:02:00;22.27;;;9.55;;
39612;SDS011;25303;48.896;13.342;2023-03-01T21:04:43;20.02;;;8.80;;
39612;SDS011;25303;48.896;13.342;2023-03-01T21:07:26;24.15;;;9.45;;
39612;SDS011;25303;48.896;13.342;2023-03-01T21:10:09;22.13;;;9.25;;
39612;SDS011;25303;48.896;13.342;2023-03-01T21:12:54;20.48;;;8.75;;
39612;SDS011;25303;48.896;13.342;2023-03-01T21:15:37;19.92;;;8.18;;
39612;SDS011;25303;48.896;13.342;2023-03-01T21:18:20;25.15;;;9.90;;
39612;SDS011;25303;48.896;13.342;2023-03-01T21:21:04;20.35;;;9.45;;
39612;SDS011;25303;48.896;13.342;2023-03-01T21:23:48;23.85;;;9.95;;
39612;SDS011;25303;48.896;13.342;2023-03-01T21:26:31;19.35;;;9.10;;
39612;SDS011;25303;48.896;13.342;2023-03-01T21:29:16;19.37;;;8.70;;
39612;SDS011;25303;48.896;13.342;2023-03-01T21:31:59;18.58;;;8.57;;
39612;SDS011;25303;48.896;13.342;2023-03-01T21:34:45;19.70;;;9.13;;
39612;SDS011;25303;48.896;13.342;2023-03-01T21:37:28;21.67;;;8.55;;
39612;SDS011;25303;48.896;13.342;2023-03-01T21:40:11;21.67;;;9.20;;
39612;SDS011;25303;48.896;13.342;2023-03-01T21:42:55;18.77;;;7.90;;
39612;SDS011;25303;48.896;13.342;2023-03-01T21:45:39;20.40;;;8.73;;
39612;SDS011;25303;48.896;13.342;2023-03-01T21:48:22;21.40;;;9.07;;
39612;SDS011;25303;48.896;13.342;2023-03-01T21:51:05;23.63;;;8.98;;
39612;SDS011;25303;48.896;13.342;2023-03-01T21:53:48;16.20;;;8.13;;
39612;SDS011;25303;48.896;13.342;2023-03-01T21:56:32;17.75;;;8.05;;
39612;SDS011;25303;48.896;13.342;2023-03-01T21:59:20;24.83;;;9.52;;
39612;SDS011;25303;48.896;13.342;2023-03-01T22:04:50;18.92;;;8.50;;
39612;SDS011;25303;48.896;13.342;2023-03-01T22:07:37;23.42;;;8.38;;
39612;SDS011;25303;48.896;13.342;2023-03-01T22:10:20;20.25;;;8.93;;
39612;SDS011;25303;48.896;13.342;2023-03-01T22:13:07;17.55;;;8.02;;
39612;SDS011;25303;48.896;13.342;2023-03-01T22:15:50;15.60;;;7.15;;
39612;SDS011;25303;48.896;13.342;2023-03-01T22:18:34;17.60;;;8.02;;
39612;SDS011;25303;48.896;13.342;2023-03-01T22:21:17;15.93;;;7.72;;
39612;SDS011;25303;48.896;13.342;2023-03-01T22:24:01;16.23;;;7.68;;
39612;SDS011;25303;48.896;13.342;2023-03-01T22:26:44;21.45;;;8.25;;
39612;SDS011;25303;48.896;13.342;2023-03-01T22:29:29;15.45;;;7.07;;
39612;SDS011;25303;48.896;13.342;2023-03-01T22:32:11;18.25;;;7.97;;
39612;SDS011;25303;48.896;13.342;2023-03-01T22:34:56;22.52;;;8.15;;
39612;SDS011;25303;48.896;13.342;2023-03-01T22:37:39;14.80;;;7.75;;
39612;SDS011;25303;48.896;13.342;2023-03-01T22:40:22;14.13;;;7.00;;
39612;SDS011;25303;48.896;13.342;2023-03-01T22:43:04;16.10;;;7.60;;
39612;SDS011;25303;48.896;13.342;2023-03-01T22:45:47;15.43;;;7.53;;
39612;SDS011;25303;48.896;13.342;2023-03-01T22:48:30;17.73;;;6.90;;
39612;SDS011;25303;48.896;13.342;2023-03-01T22:51:15;19.10;;;8.27;;
39612;SDS011;25303;48.896;13.342;2023-03-01T22:53:59;18.02;;;8.45;;
39612;SDS011;25303;48.896;13.342;2023-03-01T22:56:42;18.48;;;7.18;;
39612;SDS011;25303;48.896;13.342;2023-03-01T22:59:25;18.08;;;7.80;;
39612;SDS011;25303;48.896;13.342;2023-03-01T23:02:08;17.02;;;8.20;;
39612;SDS011;25303;48.896;13.342;2023-03-01T23:04:51;16.90;;;7.47;;
39612;SDS011;25303;48.896;13.342;2023-03-01T23:07:36;16.60;;;7.38;;
39612;SDS011;25303;48.896;13.342;2023-03-01T23:10:19;23.27;;;9.27;;
39612;SDS011;25303;48.896;13.342;2023-03-01T23:13:01;21.85;;;8.35;;
39612;SDS011;25303;48.896;13.342;2023-03-01T23:15:44;15.85;;;6.93;;
39612;SDS011;25303;48.896;13.342;2023-03-01T23:18:27;19.63;;;7.72;;
39612;SDS011;25303;48.896;13.342;2023-03-01T23:21:11;16.65;;;7.72;;
39612;SDS011;25303;48.896;13.342;2023-03-01T23:23:56;18.50;;;7.72;;
39612;SDS011;25303;48.896;13.342;2023-03-01T23:26:39;19.05;;;8.15;;
39612;SDS011;25303;48.896;13.342;2023-03-01T23:29:22;21.80;;;8.40;;
39612;SDS011;25303;48.896;13.342;2023-03-01T23:32:05;18.30;;;8.07;;
39612;SDS011;25303;48.896;13.342;2023-03-01T23:34:49;17.67;;;7.55;;
39612;SDS011;25303;48.896;13.342;2023-03-01T23:37:31;18.58;;;7.35;;
39612;SDS011;25303;48.896;13.342;2023-03-01T23:40:16;19.42;;;8.00;;
39612;SDS011;25303;48.896;13.342;2023-03-01T23:43:00;19.00;;;7.03;;
39612;SDS011;25303;48.896;13.342;2023-03-01T23:45:43;15.95;;;6.95;;
39612;SDS011;25303;48.896;13.342;2023-03-01T23:48:26;19.38;;;7.28;;
39612;SDS011;25303;48.896;13.342;2023-03-01T23:51:09;15.73;;;6.95;;
39612;SDS011;25303;48.896;13.342;2023-03-01T23:53:53;20.85;;;8.73;;
39612;SDS011;25303;48.896;13.342;2023-03-01T23:56:41;18.55;;;7.97;;
39612;SDS011;25303;48.896;13.342;2023-03-01T23:59:25;18.38;;;8.50;;
